createdAt,value
2022-10-03T05:29:41.069Z,9.50
2022-10-03T05:32:21.230Z,9.50
2022-10-03T05:35:08.646Z,9.70
2022-10-03T05:38:00.228Z,9.70
2022-10-03T05:40:30.340Z,9.80
2022-10-03T05:43:14.409Z,9.80
2022-10-03T05:45:50.299Z,9.80
2022-10-03T05:48:32.965Z,9.90
2022-10-03T05:51:20.728Z,9.90
2022-10-03T05:54:34.265Z,9.90
2022-10-03T05:57:39.912Z,10.00
2022-10-03T06:00:19.990Z,10.00
2022-10-03T06:03:23.222Z,9.90
2022-10-03T06:06:08.484Z,10.00
2022-10-03T06:09:13.696Z,10.00
2022-10-03T06:12:02.762Z,10.10
2022-10-03T06:14:50.493Z,10.00
2022-10-03T06:17:43.379Z,10.10
2022-10-03T06:20:55.493Z,10.20
2022-10-03T06:23:54.092Z,10.20
2022-10-03T06:26:43.868Z,10.20
2022-10-03T06:29:50.148Z,10.20
2022-10-03T06:33:19.427Z,10.20
2022-10-03T06:36:27.350Z,10.00
2022-10-03T06:39:44.229Z,10.10
2022-10-03T06:42:28.967Z,10.10
2022-10-03T06:45:37.966Z,10.20
2022-10-03T06:48:21.345Z,10.10
2022-10-03T06:51:01.811Z,10.20
2022-10-03T06:53:59.265Z,10.20
2022-10-03T06:57:06.009Z,10.30
2022-10-03T07:00:02.229Z,10.30
2022-10-03T07:03:13.326Z,10.40
2022-10-03T07:06:23.533Z,10.40
2022-10-03T07:09:28.916Z,10.40
2022-10-03T07:12:39.058Z,10.50
2022-10-03T07:16:14.266Z,10.60
2022-10-03T07:19:22.872Z,10.50
2022-10-03T07:22:27.346Z,10.50
2022-10-03T07:25:30.715Z,10.50
2022-10-03T07:28:19.895Z,10.60
2022-10-03T07:31:02.516Z,10.70
2022-10-03T07:33:48.792Z,10.80
2022-10-03T07:37:03.632Z,11.00
2022-10-03T07:39:55.868Z,11.10
2022-10-03T07:42:56.382Z,11.10
2022-10-03T07:45:39.579Z,11.20
2022-10-03T07:48:37.815Z,11.30
2022-10-03T07:51:15.047Z,11.40
2022-10-03T07:54:24.479Z,11.50
2022-10-03T07:57:37.983Z,11.70
2022-10-03T08:00:23.438Z,11.80
2022-10-03T08:03:41.449Z,11.90
2022-10-03T08:06:18.161Z,12.10
2022-10-03T08:09:10.299Z,12.40
2022-10-03T08:12:01.753Z,12.60
2022-10-03T08:14:43.292Z,12.70
2022-10-03T08:17:54.780Z,12.70
2022-10-03T08:20:45.258Z,12.80
2022-10-03T08:23:32.009Z,12.80
2022-10-03T08:26:13.369Z,12.90
2022-10-03T08:29:04.831Z,12.80
2022-10-03T08:32:08.153Z,12.80
2022-10-03T08:35:09.533Z,12.60
2022-10-03T08:38:07.295Z,12.60
2022-10-03T08:41:07.732Z,12.70
2022-10-03T08:44:08.815Z,12.80
2022-10-03T08:47:07.677Z,12.80
2022-10-03T08:50:07.615Z,12.80
2022-10-03T08:52:51.547Z,12.90
2022-10-03T08:55:46.582Z,13.10
2022-10-03T08:58:53.196Z,13.30
2022-10-03T09:01:45.979Z,13.20
2022-10-03T09:04:47.682Z,13.20
2022-10-03T09:07:39.000Z,13.20
2022-10-03T09:10:38.233Z,13.30
2022-10-03T09:13:43.868Z,13.40
2022-10-03T09:16:41.092Z,13.60
2022-10-03T09:19:24.380Z,13.90
2022-10-03T09:22:19.293Z,14.30
2022-10-03T09:25:35.037Z,14.70
2022-10-03T09:28:45.139Z,14.80
2022-10-03T09:31:26.670Z,14.90
2022-10-03T09:34:24.546Z,15.30
2022-10-03T09:37:29.245Z,15.90
2022-10-03T09:40:34.226Z,16.30
2022-10-03T09:43:26.596Z,16.70
2022-10-03T09:46:31.132Z,16.80
2022-10-03T09:49:30.077Z,17.30
2022-10-03T09:52:25.739Z,17.90
2022-10-03T09:55:35.122Z,18.00
2022-10-03T09:58:41.033Z,17.50
2022-10-03T10:01:23.668Z,17.10
2022-10-03T10:04:54.694Z,16.90
2022-10-03T10:08:00.624Z,16.90
2022-10-03T10:10:57.298Z,17.20
2022-10-03T10:14:12.765Z,17.40
2022-10-03T10:17:15.553Z,17.60
2022-10-03T10:20:07.508Z,18.20
2022-10-03T10:23:08.030Z,18.90
2022-10-03T10:26:05.485Z,19.00
2022-10-03T10:29:07.398Z,19.30
2022-10-03T10:32:20.452Z,20.00
2022-10-03T10:35:24.327Z,20.50
2022-10-03T10:38:26.020Z,20.80
2022-10-03T10:41:30.085Z,21.00
2022-10-03T10:44:42.272Z,21.20
2022-10-03T10:47:46.419Z,21.30
2022-10-03T10:50:46.244Z,20.90
2022-10-03T10:53:47.679Z,20.30
2022-10-03T10:56:57.505Z,19.60
2022-10-03T10:59:59.120Z,19.90
2022-10-03T11:03:07.173Z,20.60
2022-10-03T11:06:15.404Z,20.10
2022-10-03T11:09:04.641Z,19.80
2022-10-03T11:12:09.321Z,20.10
2022-10-03T11:15:19.093Z,20.50
2022-10-03T11:18:24.000Z,21.20
2022-10-03T11:21:25.536Z,21.20
2022-10-03T11:24:25.808Z,20.80
2022-10-03T11:27:41.692Z,20.40
2022-10-03T11:30:23.036Z,20.10
2022-10-03T11:33:28.293Z,19.80
2022-10-03T11:36:27.320Z,19.60
2022-10-03T11:39:04.314Z,19.50
2022-10-03T11:41:41.708Z,19.40
2022-10-03T11:44:20.250Z,19.30
2022-10-03T11:47:20.960Z,19.10
2022-10-03T11:50:31.537Z,19.10
2022-10-03T11:53:32.214Z,19.00
2022-10-03T11:56:13.912Z,19.30
2022-10-03T11:58:56.431Z,19.90
2022-10-03T12:01:40.516Z,20.60
2022-10-03T12:04:17.237Z,21.10
2022-10-03T12:07:17.629Z,21.10
2022-10-03T12:09:58.195Z,21.20
2022-10-03T12:12:34.504Z,21.50
2022-10-03T12:15:16.458Z,22.10
2022-10-03T12:17:52.104Z,22.30
2022-10-03T12:20:26.883Z,22.70
2022-10-03T12:23:01.349Z,22.60
2022-10-03T12:25:33.359Z,22.80
2022-10-03T12:28:12.696Z,23.10
2022-10-03T12:30:49.351Z,23.30
2022-10-03T12:33:37.711Z,23.10
2022-10-03T12:36:15.346Z,23.10
2022-10-03T12:38:55.991Z,23.50
2022-10-03T12:41:52.895Z,23.60
2022-10-03T12:44:34.629Z,23.90
2022-10-03T12:47:27.651Z,23.90
2022-10-03T12:50:17.432Z,24.00
2022-10-03T12:52:54.346Z,24.00
2022-10-03T12:55:28.351Z,23.90
2022-10-03T12:58:04.129Z,23.60
2022-10-03T13:00:37.481Z,23.30
2022-10-03T13:03:26.117Z,23.00
2022-10-03T13:06:19.984Z,22.50
2022-10-03T13:09:04.492Z,22.40
2022-10-03T13:11:41.784Z,22.40
2022-10-03T13:14:28.241Z,22.50
2022-10-03T13:17:05.372Z,22.10
2022-10-03T13:19:44.956Z,22.00
2022-10-03T13:22:34.281Z,21.80
2022-10-03T13:25:08.820Z,21.90
2022-10-03T13:27:44.135Z,22.20
2022-10-03T13:30:20.767Z,22.20
2022-10-03T13:32:53.698Z,22.40
2022-10-03T13:35:48.688Z,22.30
2022-10-03T13:38:45.909Z,22.30
2022-10-03T13:41:26.945Z,21.90
2022-10-03T13:44:01.469Z,20.70
2022-10-03T13:46:38.654Z,20.40
2022-10-03T13:49:18.634Z,21.00
2022-10-03T13:51:57.029Z,20.80
2022-10-03T13:54:44.064Z,21.20
2022-10-03T13:57:18.435Z,21.80
2022-10-03T13:59:59.360Z,21.90
2022-10-03T14:02:59.881Z,22.10
2022-10-03T14:05:44.595Z,21.70
2022-10-03T14:08:28.621Z,21.70
2022-10-03T14:11:14.349Z,21.90
2022-10-03T14:13:53.959Z,21.90
2022-10-03T14:16:27.839Z,21.60
2022-10-03T14:19:09.066Z,21.30
2022-10-03T14:21:59.713Z,20.90
2022-10-03T14:24:39.402Z,20.70
2022-10-03T14:27:17.378Z,21.00
2022-10-03T14:29:58.771Z,21.20
2022-10-03T14:32:47.239Z,21.50
2022-10-03T14:35:27.913Z,21.70
2022-10-03T14:38:05.082Z,21.80
2022-10-03T14:40:43.713Z,21.60
2022-10-03T14:43:39.799Z,21.50
2022-10-03T14:46:10.844Z,21.40
2022-10-03T14:48:44.753Z,20.80
2022-10-03T14:51:19.138Z,20.60
2022-10-03T14:53:55.566Z,20.60
2022-10-03T14:56:28.026Z,20.30
2022-10-03T14:58:58.269Z,20.20
2022-10-03T15:01:28.649Z,19.90
2022-10-03T15:04:03.732Z,19.60
2022-10-03T15:06:53.679Z,19.00
2022-10-03T15:09:25.800Z,19.00
2022-10-03T15:12:01.846Z,19.20
2022-10-03T15:14:32.106Z,19.40
2022-10-03T15:17:02.420Z,19.40
2022-10-03T15:19:37.362Z,19.40
2022-10-03T15:22:16.119Z,19.30
2022-10-03T15:24:44.413Z,19.40
2022-10-03T15:27:21.139Z,19.10
2022-10-03T15:29:54.682Z,18.90
2022-10-03T15:32:27.669Z,18.80
2022-10-03T15:35:00.699Z,18.70
2022-10-03T15:37:35.337Z,18.60
2022-10-03T15:40:09.501Z,18.60
2022-10-03T15:42:50.622Z,18.50
2022-10-03T15:45:24.693Z,18.40
2022-10-03T15:47:53.614Z,18.40
2022-10-03T15:50:27.157Z,18.30
2022-10-03T15:53:12.474Z,18.20
2022-10-03T15:55:50.856Z,18.00
2022-10-03T15:58:25.503Z,17.80
2022-10-03T16:01:04.202Z,17.70
2022-10-03T16:03:38.389Z,17.60
2022-10-03T16:06:13.711Z,17.50
2022-10-03T16:08:54.133Z,17.20
2022-10-03T16:11:24.422Z,17.10
2022-10-03T16:14:05.750Z,17.00
2022-10-03T16:16:38.865Z,16.80
2022-10-03T16:19:30.254Z,16.70
2022-10-03T16:22:09.745Z,16.60
2022-10-03T16:24:44.411Z,16.40
2022-10-03T16:27:18.065Z,16.30
2022-10-03T16:29:54.926Z,16.20
2022-10-03T16:32:26.645Z,16.10
2022-10-03T16:34:59.521Z,16.00
2022-10-03T16:37:29.909Z,15.90
2022-10-03T16:40:02.764Z,15.80
2022-10-03T16:42:40.914Z,15.70
2022-10-03T16:45:23.188Z,15.60
2022-10-03T16:48:13.225Z,15.60
2022-10-03T16:50:47.468Z,15.50
2022-10-03T16:53:16.083Z,15.40
2022-10-03T16:55:49.652Z,15.50
2022-10-03T16:58:23.322Z,15.20
2022-10-03T17:01:22.087Z,15.10
2022-10-03T17:03:49.355Z,15.00
2022-10-03T17:06:23.400Z,14.90
2022-10-03T17:08:54.081Z,14.80
2022-10-03T17:11:26.342Z,14.80
2022-10-03T17:13:59.419Z,14.60
2022-10-03T17:16:37.639Z,14.60
2022-10-03T17:19:20.749Z,14.90
2022-10-03T17:21:54.690Z,14.50
2022-10-03T17:24:33.320Z,14.60
2022-10-03T17:27:05.887Z,14.30
2022-10-03T17:29:36.794Z,14.10
2022-10-03T17:32:15.582Z,14.10
2022-10-03T17:34:48.035Z,14.00
2022-10-03T17:37:35.496Z,13.90
2022-10-03T17:40:17.865Z,13.90
2022-10-03T17:42:49.880Z,13.70
2022-10-03T17:45:33.356Z,13.60
2022-10-03T17:48:12.918Z,13.50
2022-10-03T17:50:56.294Z,13.40
2022-10-03T17:53:28.757Z,13.30
2022-10-03T17:55:59.684Z,13.20
2022-10-03T17:58:31.613Z,13.10
2022-10-03T18:01:10.806Z,13.00
2022-10-03T18:03:48.520Z,13.00
2022-10-03T18:06:48.306Z,12.90
2022-10-03T18:09:40.637Z,12.70
2022-10-03T18:12:18.276Z,12.70
2022-10-03T18:15:07.470Z,12.70
2022-10-03T18:18:00.082Z,12.60
2022-10-03T18:20:48.689Z,12.60
2022-10-03T18:23:50.000Z,12.60
2022-10-03T18:26:24.001Z,12.50
2022-10-03T18:29:03.327Z,12.40
2022-10-03T18:31:36.763Z,12.30
2022-10-03T18:34:16.061Z,12.20
2022-10-03T18:36:51.011Z,12.10
2022-10-03T18:39:32.167Z,12.20
2022-10-03T18:42:46.221Z,12.10
2022-10-03T18:45:21.459Z,12.10
2022-10-03T18:58:52.069Z,11.70
2022-10-03T19:49:27.747Z,10.60
2022-10-03T20:21:33.545Z,10.60
2022-10-03T20:24:08.786Z,10.40
2022-10-03T20:26:44.088Z,10.40
2022-10-03T20:29:24.037Z,10.30
2022-10-03T20:31:52.926Z,10.20
2022-10-03T20:34:24.754Z,10.10
2022-10-03T20:37:04.513Z,10.10
2022-10-03T20:39:36.297Z,10.00
2022-10-03T20:42:11.126Z,10.00
2022-10-03T20:45:03.285Z,10.10
2022-10-03T20:47:47.791Z,10.00
2022-10-03T20:50:23.652Z,9.90
2022-10-03T20:52:55.411Z,9.80
2022-10-03T20:55:27.781Z,9.60
2022-10-03T20:58:15.906Z,9.40
2022-10-03T21:00:48.782Z,9.40
2022-10-03T21:03:24.949Z,9.40
2022-10-03T21:05:55.096Z,9.50
2022-10-03T21:08:28.248Z,9.60
2022-10-03T21:10:59.008Z,9.50
2022-10-03T21:13:33.610Z,9.50
2022-10-03T21:16:03.854Z,9.50
2022-10-03T21:18:34.974Z,9.50
2022-10-03T21:21:09.581Z,9.50
2022-10-03T21:23:44.531Z,9.40
2022-10-03T21:26:13.020Z,9.30
2022-10-03T21:28:41.186Z,9.20
2022-10-03T21:31:31.554Z,9.20
2022-10-03T21:34:06.696Z,9.30
2022-10-03T21:36:40.330Z,9.20
2022-10-03T21:39:18.791Z,9.10
2022-10-03T21:42:00.499Z,9.10
2022-10-03T21:44:38.703Z,9.10
2022-10-03T21:47:20.587Z,9.00
2022-10-03T21:49:56.584Z,9.00
2022-10-03T21:52:45.731Z,9.00
2022-10-03T21:55:52.317Z,9.00
2022-10-03T21:58:35.913Z,9.00
2022-10-03T22:01:12.049Z,9.00
2022-10-03T22:03:46.158Z,8.90
2022-10-03T22:06:21.838Z,8.80
2022-10-03T22:08:51.092Z,8.90
2022-10-03T22:11:33.998Z,8.80
2022-10-03T22:14:14.268Z,8.80
2022-10-03T22:16:48.557Z,8.80
2022-10-03T22:19:23.196Z,8.90
2022-10-03T22:22:04.867Z,8.80
2022-10-03T22:24:45.789Z,8.80
2022-10-03T22:27:20.620Z,8.90
2022-10-03T22:29:59.441Z,8.80
2022-10-03T22:32:34.208Z,8.90
2022-10-03T22:35:13.077Z,8.90
2022-10-03T22:37:41.250Z,8.80
2022-10-03T22:40:10.334Z,8.90
2022-10-03T22:42:45.527Z,8.80
2022-10-03T22:45:16.008Z,8.80
2022-10-03T22:47:46.097Z,8.80
2022-10-03T22:50:20.226Z,8.70
2022-10-03T22:52:51.823Z,8.70
2022-10-03T22:55:22.081Z,8.70
2022-10-03T22:57:53.221Z,8.70
2022-10-03T23:00:24.639Z,8.70
2022-10-03T23:02:59.912Z,8.60
2022-10-03T23:05:50.105Z,8.70
2022-10-03T23:08:26.624Z,8.70
2022-10-03T23:11:04.039Z,8.80
2022-10-03T23:13:39.344Z,8.90
2022-10-03T23:16:18.424Z,8.90
2022-10-03T23:19:04.927Z,8.90
2022-10-03T23:21:33.978Z,9.00
2022-10-03T23:24:08.746Z,9.00
2022-10-03T23:26:54.347Z,9.00
2022-10-03T23:29:23.743Z,8.90
2022-10-03T23:32:02.065Z,8.80
2022-10-03T23:35:13.307Z,8.70
2022-10-03T23:37:43.126Z,8.70
2022-10-03T23:40:28.770Z,8.60
2022-10-03T23:43:04.546Z,8.60
2022-10-03T23:45:36.392Z,8.50
2022-10-03T23:48:07.640Z,8.60
2022-10-03T23:50:41.297Z,8.50
2022-10-03T23:53:19.139Z,8.50
2022-10-03T23:55:47.609Z,8.50
2022-10-03T23:58:24.541Z,8.50
